sensor_id;sensor_type;location;lat;lon;timestamp;pressure;altitude;pressure_sealevel;temperature;humidity
19624;BME280;9959;49.798;9.928;2023-01-28T00:01:52;100397.56;;;1.16;100.00
19624;BME280;9959;49.798;9.928;2023-01-28T00:04:19;100401.03;;;1.07;100.00
19624;BME280;9959;49.798;9.928;2023-01-28T00:06:46;100386.94;;;1.16;100.00
19624;BME280;9959;49.798;9.928;2023-01-28T00:09:13;100392.69;;;1.21;100.00
19624;BME280;9959;49.798;9.928;2023-01-28T00:11:40;100388.38;;;1.20;100.00
19624;BME280;9959;49.798;9.928;2023-01-28T00:14:10;100389.78;;;1.24;100.00
19624;BME280;9959;49.798;9.928;2023-01-28T00:16:37;100386.69;;;1.19;99.74
19624;BME280;9959;49.798;9.928;2023-01-28T00:19:04;100391.72;;;1.22;97.75
19624;BME280;9959;49.798;9.928;2023-01-28T00:21:30;100384.47;;;1.24;98.86
19624;BME280;9959;49.798;9.928;2023-01-28T00:23:57;100380.59;;;1.28;97.36
19624;BME280;9959;49.798;9.928;2023-01-28T00:26:24;100382.97;;;1.31;97.86
19624;BME280;9959;49.798;9.928;2023-01-28T00:28:51;100379.75;;;1.37;98.48
19624;BME280;9959;49.798;9.928;2023-01-28T00:31:20;100371.78;;;1.37;96.90
19624;BME280;9959;49.798;9.928;2023-01-28T00:33:49;100377.53;;;1.42;97.73
19624;BME280;9959;49.798;9.928;2023-01-28T00:36:17;100377.66;;;1.31;96.87
19624;BME280;9959;49.798;9.928;2023-01-28T00:38:56;100376.41;;;1.35;96.94
19624;BME280;9959;49.798;9.928;2023-01-28T00:41:25;100378.50;;;1.41;96.63
19624;BME280;9959;49.798;9.928;2023-01-28T00:43:53;100369.81;;;1.29;97.30
19624;BME280;9959;49.798;9.928;2023-01-28T00:46:21;100381.41;;;1.28;97.30
19624;BME280;9959;49.798;9.928;2023-01-28T00:48:48;100376.94;;;1.29;97.84
19624;BME280;9959;49.798;9.928;2023-01-28T00:51:16;100371.66;;;1.29;98.90
19624;BME280;9959;49.798;9.928;2023-01-28T00:53:43;100371.38;;;1.32;99.15
19624;BME280;9959;49.798;9.928;2023-01-28T00:56:12;100375.59;;;1.34;96.01
19624;BME280;9959;49.798;9.928;2023-01-28T00:58:40;100377.09;;;1.37;96.10
19624;BME280;9959;49.798;9.928;2023-01-28T01:01:12;100379.47;;;1.40;95.61
19624;BME280;9959;49.798;9.928;2023-01-28T01:03:40;100382.41;;;1.37;95.51
19624;BME280;9959;49.798;9.928;2023-01-28T01:06:07;100377.09;;;1.37;94.91
19624;BME280;9959;49.798;9.928;2023-01-28T01:08:34;100381.75;;;1.45;95.24
19624;BME280;9959;49.798;9.928;2023-01-28T01:11:02;100381.72;;;1.35;94.68
19624;BME280;9959;49.798;9.928;2023-01-28T01:13:30;100394.03;;;1.46;94.67
19624;BME280;9959;49.798;9.928;2023-01-28T01:18:32;100391.78;;;1.41;94.41
19624;BME280;9959;49.798;9.928;2023-01-28T01:21:00;100392.75;;;1.40;94.54
19624;BME280;9959;49.798;9.928;2023-01-28T01:23:29;100393.47;;;1.42;94.10
19624;BME280;9959;49.798;9.928;2023-01-28T01:25:56;100393.72;;;1.39;94.39
19624;BME280;9959;49.798;9.928;2023-01-28T01:28:23;100399.47;;;1.44;94.00
19624;BME280;9959;49.798;9.928;2023-01-28T01:31:09;100398.78;;;1.42;94.59
19624;BME280;9959;49.798;9.928;2023-01-28T01:33:36;100399.03;;;1.39;94.39
19624;BME280;9959;49.798;9.928;2023-01-28T01:36:02;100404.38;;;1.49;94.23
19624;BME280;9959;49.798;9.928;2023-01-28T01:38:29;100395.16;;;1.43;94.33
19624;BME280;9959;49.798;9.928;2023-01-28T01:40:58;100392.50;;;1.43;94.38
19624;BME280;9959;49.798;9.928;2023-01-28T01:43:55;100400.47;;;1.43;94.49
19624;BME280;9959;49.798;9.928;2023-01-28T01:46:35;100397.34;;;1.38;94.81
19624;BME280;9959;49.798;9.928;2023-01-28T01:51:39;100402.84;;;1.37;93.99
19624;BME280;9959;49.798;9.928;2023-01-28T01:54:06;100398.34;;;1.37;94.61
19624;BME280;9959;49.798;9.928;2023-01-28T01:56:37;100394.56;;;1.30;94.28
19624;BME280;9959;49.798;9.928;2023-01-28T01:59:10;100399.47;;;1.34;94.54
19624;BME280;9959;49.798;9.928;2023-01-28T02:01:38;100399.47;;;1.34;95.11
19624;BME280;9959;49.798;9.928;2023-01-28T02:04:10;100396.38;;;1.39;95.62
19624;BME280;9959;49.798;9.928;2023-01-28T02:06:38;100392.75;;;1.40;95.13
19624;BME280;9959;49.798;9.928;2023-01-28T02:11:38;100393.31;;;1.34;95.92
19624;BME280;9959;49.798;9.928;2023-01-28T02:14:05;100387.31;;;1.32;95.51
19624;BME280;9959;49.798;9.928;2023-01-28T02:16:32;100385.88;;;1.28;95.33
19624;BME280;9959;49.798;9.928;2023-01-28T02:18:59;100390.38;;;1.37;95.32
19624;BME280;9959;49.798;9.928;2023-01-28T02:27:25;100399.88;;;1.30;94.46
19624;BME280;9959;49.798;9.928;2023-01-28T02:30:06;100402.53;;;1.30;94.56
19624;BME280;9959;49.798;9.928;2023-01-28T02:32:40;100393.16;;;1.26;94.55
19624;BME280;9959;49.798;9.928;2023-01-28T02:37:45;100405.19;;;1.30;94.93
19624;BME280;9959;49.798;9.928;2023-01-28T02:40:26;100407.13;;;1.28;94.84
19624;BME280;9959;49.798;9.928;2023-01-28T02:42:58;100403.75;;;1.26;94.49
19624;BME280;9959;49.798;9.928;2023-01-28T02:45:31;100400.97;;;1.27;95.02
19624;BME280;9959;49.798;9.928;2023-01-28T02:48:19;100408.22;;;1.25;94.47
19624;BME280;9959;49.798;9.928;2023-01-28T02:51:01;100411.28;;;1.21;95.17
19624;BME280;9959;49.798;9.928;2023-01-28T02:53:40;100407.38;;;1.25;94.68
19624;BME280;9959;49.798;9.928;2023-01-28T02:59:07;100418.72;;;1.27;94.43
19624;BME280;9959;49.798;9.928;2023-01-28T03:01:42;100418.31;;;1.31;94.68
19624;BME280;9959;49.798;9.928;2023-01-28T03:04:22;100420.66;;;1.25;94.86
19624;BME280;9959;49.798;9.928;2023-01-28T03:06:56;100410.75;;;1.27;94.76
19624;BME280;9959;49.798;9.928;2023-01-28T03:09:24;100411.91;;;1.34;94.09
19624;BME280;9959;49.798;9.928;2023-01-28T03:11:58;100423.88;;;1.28;94.08
19624;BME280;9959;49.798;9.928;2023-01-28T03:14:41;100418.25;;;1.22;94.01
19624;BME280;9959;49.798;9.928;2023-01-28T03:17:54;100423.56;;;1.22;93.94
19624;BME280;9959;49.798;9.928;2023-01-28T03:20:49;100420.91;;;1.22;94.58
19624;BME280;9959;49.798;9.928;2023-01-28T03:26:47;100412.97;;;1.22;94.80
19624;BME280;9959;49.798;9.928;2023-01-28T03:29:34;100421.44;;;1.16;94.12
19624;BME280;9959;49.798;9.928;2023-01-28T03:32:21;100424.28;;;1.24;94.16
19624;BME280;9959;49.798;9.928;2023-01-28T03:35:07;100424.16;;;1.25;93.32
19624;BME280;9959;49.798;9.928;2023-01-28T03:37:40;100420.22;;;1.20;93.52
19624;BME280;9959;49.798;9.928;2023-01-28T03:40:07;100419.56;;;1.27;93.00
19624;BME280;9959;49.798;9.928;2023-01-28T03:42:37;100436.13;;;1.20;93.15
19624;BME280;9959;49.798;9.928;2023-01-28T03:45:05;100433.22;;;1.23;92.61
19624;BME280;9959;49.798;9.928;2023-01-28T03:47:36;100437.56;;;1.24;92.74
19624;BME280;9959;49.798;9.928;2023-01-28T03:50:06;100436.84;;;1.22;92.49
19624;BME280;9959;49.798;9.928;2023-01-28T03:52:33;100431.78;;;1.19;92.38
19624;BME280;9959;49.798;9.928;2023-01-28T03:55:03;100438.91;;;1.18;92.67
19624;BME280;9959;49.798;9.928;2023-01-28T03:57:37;100447.91;;;1.27;92.22
19624;BME280;9959;49.798;9.928;2023-01-28T04:00:05;100444.81;;;1.22;92.10
19624;BME280;9959;49.798;9.928;2023-01-28T04:02:33;100444.53;;;1.25;92.19
19624;BME280;9959;49.798;9.928;2023-01-28T04:05:01;100450.38;;;1.19;92.26
19624;BME280;9959;49.798;9.928;2023-01-28T04:07:32;100446.75;;;1.20;92.65
19624;BME280;9959;49.798;9.928;2023-01-28T04:09:59;100461.69;;;1.21;92.49
19624;BME280;9959;49.798;9.928;2023-01-28T04:12:27;100464.09;;;1.24;91.96
19624;BME280;9959;49.798;9.928;2023-01-28T04:15:00;100453.47;;;1.24;92.11
19624;BME280;9959;49.798;9.928;2023-01-28T04:17:27;100461.44;;;1.24;91.57
19624;BME280;9959;49.798;9.928;2023-01-28T04:19:56;100456.00;;;1.25;91.96
19624;BME280;9959;49.798;9.928;2023-01-28T04:22:23;100463.84;;;1.27;91.77
19624;BME280;9959;49.798;9.928;2023-01-28T04:24:50;100456.84;;;1.26;90.86
19624;BME280;9959;49.798;9.928;2023-01-28T04:27:17;100460.22;;;1.28;91.05
19624;BME280;9959;49.798;9.928;2023-01-28T04:29:44;100458.53;;;1.27;90.96
19624;BME280;9959;49.798;9.928;2023-01-28T04:32:15;100466.47;;;1.27;91.21
19624;BME280;9959;49.798;9.928;2023-01-28T04:34:41;100463.31;;;1.33;91.14
19624;BME280;9959;49.798;9.928;2023-01-28T04:37:08;100465.78;;;1.25;90.91
19624;BME280;9959;49.798;9.928;2023-01-28T04:39:35;100471.66;;;1.28;90.57
19624;BME280;9959;49.798;9.928;2023-01-28T04:42:02;100471.09;;;1.25;90.54
19624;BME280;9959;49.798;9.928;2023-01-28T04:44:28;100474.97;;;1.21;90.94
19624;BME280;9959;49.798;9.928;2023-01-28T04:46:55;100474.59;;;1.25;90.77
19624;BME280;9959;49.798;9.928;2023-01-28T04:49:22;100473.47;;;1.28;90.34
19624;BME280;9959;49.798;9.928;2023-01-28T04:51:49;100482.53;;;1.25;90.33
19624;BME280;9959;49.798;9.928;2023-01-28T04:54:19;100479.75;;;1.27;90.29
19624;BME280;9959;49.798;9.928;2023-01-28T04:56:46;100482.41;;;1.27;90.39
19624;BME280;9959;49.798;9.928;2023-01-28T04:59:13;100482.66;;;1.24;90.06
19624;BME280;9959;49.798;9.928;2023-01-28T05:01:39;100484.34;;;1.25;89.85
19624;BME280;9959;49.798;9.928;2023-01-28T05:04:06;100478.34;;;1.23;89.90
19624;BME280;9959;49.798;9.928;2023-01-28T05:06:34;100481.44;;;1.28;89.51
19624;BME280;9959;49.798;9.928;2023-01-28T05:09:00;100484.81;;;1.30;89.72
19624;BME280;9959;49.798;9.928;2023-01-28T05:11:27;100485.47;;;1.22;89.25
19624;BME280;9959;49.798;9.928;2023-01-28T05:13:54;100480.72;;;1.26;89.23
19624;BME280;9959;49.798;9.928;2023-01-28T05:16:21;100474.19;;;1.30;89.42
19624;BME280;9959;49.798;9.928;2023-01-28T05:18:52;100480.72;;;1.26;89.26
19624;BME280;9959;49.798;9.928;2023-01-28T05:21:19;100483.13;;;1.29;89.12
19624;BME280;9959;49.798;9.928;2023-01-28T05:23:45;100483.00;;;1.30;88.80
19624;BME280;9959;49.798;9.928;2023-01-28T05:26:12;100484.22;;;1.26;89.13
19624;BME280;9959;49.798;9.928;2023-01-28T05:28:39;100492.06;;;1.28;89.11
19624;BME280;9959;49.798;9.928;2023-01-28T05:31:06;100489.41;;;1.28;88.71
19624;BME280;9959;49.798;9.928;2023-01-28T05:33:33;100485.59;;;1.21;88.73
19624;BME280;9959;49.798;9.928;2023-01-28T05:35:59;100485.31;;;1.24;88.88
19624;BME280;9959;49.798;9.928;2023-01-28T05:38:26;100486.03;;;1.26;88.90
19624;BME280;9959;49.798;9.928;2023-01-28T05:40:53;100494.25;;;1.23;88.69
19624;BME280;9959;49.798;9.928;2023-01-28T05:43:20;100489.47;;;1.17;89.00
19624;BME280;9959;49.798;9.928;2023-01-28T05:45:47;100490.88;;;1.21;88.84
19624;BME280;9959;49.798;9.928;2023-01-28T05:48:14;100487.53;;;1.19;89.05
19624;BME280;9959;49.798;9.928;2023-01-28T05:50:41;100498.13;;;1.19;88.88
19624;BME280;9959;49.798;9.928;2023-01-28T05:53:09;100494.25;;;1.23;88.79
19624;BME280;9959;49.798;9.928;2023-01-28T05:55:36;100498.97;;;1.19;88.80
19624;BME280;9959;49.798;9.928;2023-01-28T05:58:03;100503.91;;;1.24;88.64
19624;BME280;9959;49.798;9.928;2023-01-28T06:00:30;100507.06;;;1.18;88.69
19624;BME280;9959;49.798;9.928;2023-01-28T06:02:56;100502.59;;;1.18;88.70
19624;BME280;9959;49.798;9.928;2023-01-28T06:05:23;100510.97;;;1.14;88.60
19624;BME280;9959;49.798;9.928;2023-01-28T06:07:50;100503.72;;;1.16;88.52
19624;BME280;9959;49.798;9.928;2023-01-28T06:10:21;100505.84;;;1.22;88.30
19624;BME280;9959;49.798;9.928;2023-01-28T06:12:48;100515.75;;;1.20;87.92
19624;BME280;9959;49.798;9.928;2023-01-28T06:15:15;100523.13;;;1.16;88.12
19624;BME280;9959;49.798;9.928;2023-01-28T06:17:42;100526.63;;;1.17;88.30
19624;BME280;9959;49.798;9.928;2023-01-28T06:20:09;100521.56;;;1.14;88.71
19624;BME280;9959;49.798;9.928;2023-01-28T06:22:37;100525.78;;;1.16;88.41
19624;BME280;9959;49.798;9.928;2023-01-28T06:25:04;100530.69;;;1.21;88.06
19624;BME280;9959;49.798;9.928;2023-01-28T06:27:31;100536.66;;;1.13;88.79
19624;BME280;9959;49.798;9.928;2023-01-28T06:29:58;100530.50;;;1.13;88.44
19624;BME280;9959;49.798;9.928;2023-01-28T06:32:24;100536.91;;;1.10;87.93
19624;BME280;9959;49.798;9.928;2023-01-28T06:34:51;100539.72;;;1.09;88.07
19624;BME280;9959;49.798;9.928;2023-01-28T06:37:21;100551.00;;;1.11;88.07
19624;BME280;9959;49.798;9.928;2023-01-28T06:39:51;100552.00;;;1.10;87.93
19624;BME280;9959;49.798;9.928;2023-01-28T06:42:18;100560.16;;;1.18;87.86
19624;BME280;9959;49.798;9.928;2023-01-28T06:44:44;100563.31;;;1.12;87.73
19624;BME280;9959;49.798;9.928;2023-01-28T06:47:11;100555.47;;;1.10;87.26
19624;BME280;9959;49.798;9.928;2023-01-28T06:49:40;100566.50;;;1.06;87.83
19624;BME280;9959;49.798;9.928;2023-01-28T06:52:09;100562.59;;;1.10;87.59
19624;BME280;9959;49.798;9.928;2023-01-28T06:54:35;100567.22;;;1.08;86.71
19624;BME280;9959;49.798;9.928;2023-01-28T06:57:03;100572.78;;;1.05;87.00
19624;BME280;9959;49.798;9.928;2023-01-28T06:59:30;100577.72;;;1.09;87.03
19624;BME280;9959;49.798;9.928;2023-01-28T07:01:57;100581.47;;;1.07;86.99
19624;BME280;9959;49.798;9.928;2023-01-28T07:04:23;100579.06;;;1.04;86.72
19624;BME280;9959;49.798;9.928;2023-01-28T07:06:50;100575.31;;;1.06;86.63
19624;BME280;9959;49.798;9.928;2023-01-28T07:09:17;100578.81;;;1.07;86.66
19624;BME280;9959;49.798;9.928;2023-01-28T07:11:43;100587.59;;;1.07;86.54
19624;BME280;9959;49.798;9.928;2023-01-28T07:14:10;100585.25;;;1.14;86.17
19624;BME280;9959;49.798;9.928;2023-01-28T07:16:37;100586.63;;;1.08;86.43
19624;BME280;9959;49.798;9.928;2023-01-28T07:19:04;100589.28;;;1.08;86.11
19624;BME280;9959;49.798;9.928;2023-01-28T07:21:30;100587.47;;;1.09;86.31
19624;BME280;9959;49.798;9.928;2023-01-28T07:23:57;100594.97;;;1.04;86.15
19624;BME280;9959;49.798;9.928;2023-01-28T07:26:25;100586.06;;;1.05;86.64
19624;BME280;9959;49.798;9.928;2023-01-28T07:28:52;100587.59;;;1.07;86.03
19624;BME280;9959;49.798;9.928;2023-01-28T07:31:18;100589.53;;;1.05;85.76
19624;BME280;9959;49.798;9.928;2023-01-28T07:33:45;100591.34;;;1.05;85.76
19624;BME280;9959;49.798;9.928;2023-01-28T07:38:39;100594.25;;;1.01;85.52
19624;BME280;9959;49.798;9.928;2023-01-28T07:41:05;100601.84;;;1.06;86.00
19624;BME280;9959;49.798;9.928;2023-01-28T07:43:32;100598.59;;;1.02;85.64
19624;BME280;9959;49.798;9.928;2023-01-28T07:45:59;100601.75;;;0.96;85.16
19624;BME280;9959;49.798;9.928;2023-01-28T07:48:27;100601.97;;;1.05;85.25
19624;BME280;9959;49.798;9.928;2023-01-28T07:50:57;100605.47;;;1.05;85.35
19624;BME280;9959;49.798;9.928;2023-01-28T07:53:25;100602.69;;;1.07;85.02
19624;BME280;9959;49.798;9.928;2023-01-28T07:55:57;100603.66;;;1.06;84.72
19624;BME280;9959;49.798;9.928;2023-01-28T07:58:25;100601.00;;;1.06;84.99
19624;BME280;9959;49.798;9.928;2023-01-28T08:00:55;100605.59;;;1.04;84.51
19624;BME280;9959;49.798;9.928;2023-01-28T08:03:22;100596.66;;;1.05;84.72
19624;BME280;9959;49.798;9.928;2023-01-28T08:05:51;100601.84;;;1.06;84.59
19624;BME280;9959;49.798;9.928;2023-01-28T08:08:22;100605.59;;;1.04;84.20
19624;BME280;9959;49.798;9.928;2023-01-28T08:10:50;100602.94;;;1.04;83.85
19624;BME280;9959;49.798;9.928;2023-01-28T08:13:17;100608.19;;;1.15;83.99
19624;BME280;9959;49.798;9.928;2023-01-28T08:15:44;100606.38;;;1.15;84.29
19624;BME280;9959;49.798;9.928;2023-01-28T08:20:40;100624.09;;;1.15;84.29
19624;BME280;9959;49.798;9.928;2023-01-28T08:23:16;100617.94;;;1.14;84.04
19624;BME280;9959;49.798;9.928;2023-01-28T08:25:40;100615.81;;;1.08;84.22
19624;BME280;9959;49.798;9.928;2023-01-28T08:28:07;100619.03;;;1.12;83.92
19624;BME280;9959;49.798;9.928;2023-01-28T08:30:36;100630.63;;;1.11;83.43
19624;BME280;9959;49.798;9.928;2023-01-28T08:33:05;100624.63;;;1.09;83.58
19624;BME280;9959;49.798;9.928;2023-01-28T08:35:34;100620.97;;;1.10;83.45
19624;BME280;9959;49.798;9.928;2023-01-28T08:38:03;100622.41;;;1.14;83.38
19624;BME280;9959;49.798;9.928;2023-01-28T08:40:30;100629.75;;;1.21;83.19
19624;BME280;9959;49.798;9.928;2023-01-28T08:42:57;100629.03;;;1.19;83.12
19624;BME280;9959;49.798;9.928;2023-01-28T08:45:25;100634.97;;;1.12;83.01
19624;BME280;9959;49.798;9.928;2023-01-28T08:47:55;100632.78;;;1.17;83.21
19624;BME280;9959;49.798;9.928;2023-01-28T08:50:29;100640.03;;;1.15;83.33
19624;BME280;9959;49.798;9.928;2023-01-28T08:53:01;100634.97;;;1.12;83.19
19624;BME280;9959;49.798;9.928;2023-01-28T08:55:28;100638.94;;;1.17;83.35
19624;BME280;9959;49.798;9.928;2023-01-28T08:57:55;100645.06;;;1.18;83.48
19624;BME280;9959;49.798;9.928;2023-01-28T09:00:24;100646.28;;;1.14;83.72
19624;BME280;9959;49.798;9.928;2023-01-28T09:02:51;100650.03;;;1.11;82.97
19624;BME280;9959;49.798;9.928;2023-01-28T09:05:19;100641.69;;;1.16;83.58
19624;BME280;9959;49.798;9.928;2023-01-28T09:07:47;100635.25;;;1.09;82.84
19624;BME280;9959;49.798;9.928;2023-01-28T09:10:17;100641.69;;;1.16;82.71
19624;BME280;9959;49.798;9.928;2023-01-28T09:12:45;100641.97;;;1.13;82.67
19624;BME280;9959;49.798;9.928;2023-01-28T09:15:12;100651.56;;;1.25;82.14
19624;BME280;9959;49.798;9.928;2023-01-28T09:17:39;100647.22;;;1.24;82.13
19624;BME280;9959;49.798;9.928;2023-01-28T09:20:07;100645.91;;;1.18;82.36
19624;BME280;9959;49.798;9.928;2023-01-28T09:22:34;100653.97;;;1.28;81.72
19624;BME280;9959;49.798;9.928;2023-01-28T09:25:01;100659.94;;;1.41;81.87
19624;BME280;9959;49.798;9.928;2023-01-28T09:27:28;100665.34;;;1.40;81.12
19624;BME280;9959;49.798;9.928;2023-01-28T09:29:54;100664.41;;;1.41;81.20
19624;BME280;9959;49.798;9.928;2023-01-28T09:32:21;100662.31;;;1.44;81.09
19624;BME280;9959;49.798;9.928;2023-01-28T09:34:50;100663.28;;;1.43;81.15
19624;BME280;9959;49.798;9.928;2023-01-28T09:37:16;100676.28;;;1.57;80.47
19624;BME280;9959;49.798;9.928;2023-01-28T09:39:44;100678.00;;;1.47;80.66
19624;BME280;9959;49.798;9.928;2023-01-28T09:44:54;100678.75;;;1.38;80.01
19624;BME280;9959;49.798;9.928;2023-01-28T09:47:40;100682.88;;;1.63;80.14
19624;BME280;9959;49.798;9.928;2023-01-28T09:52:40;100678.69;;;1.60;79.06
19624;BME280;9959;49.798;9.928;2023-01-28T09:57:44;100681.91;;;1.64;78.80
19624;BME280;9959;49.798;9.928;2023-01-28T10:00:15;100680.78;;;1.66;79.00
19624;BME280;9959;49.798;9.928;2023-01-28T10:05:53;100688.00;;;1.76;77.84
19624;BME280;9959;49.798;9.928;2023-01-28T10:16:53;100689.81;;;1.75;76.94
19624;BME280;9959;49.798;9.928;2023-01-28T10:19:26;100688.56;;;1.79;77.43
19624;BME280;9959;49.798;9.928;2023-01-28T10:22:02;100691.94;;;1.81;76.53
19624;BME280;9959;49.798;9.928;2023-01-28T10:24:39;100694.72;;;1.80;76.71
19624;BME280;9959;49.798;9.928;2023-01-28T10:29:40;100684.41;;;1.65;76.31
19624;BME280;9959;49.798;9.928;2023-01-28T10:34:42;100688.06;;;1.85;76.02
19624;BME280;9959;49.798;9.928;2023-01-28T10:37:12;100681.91;;;1.85;75.78
19624;BME280;9959;49.798;9.928;2023-01-28T10:39:40;100684.53;;;2.06;76.18
19624;BME280;9959;49.798;9.928;2023-01-28T10:44:41;100685.91;;;2.00;75.00
19624;BME280;9959;49.798;9.928;2023-01-28T10:49:52;100692.91;;;2.01;74.97
19624;BME280;9959;49.798;9.928;2023-01-28T10:52:20;100688.44;;;1.81;75.40
19624;BME280;9959;49.798;9.928;2023-01-28T10:55:01;100696.28;;;1.82;74.96
19624;BME280;9959;49.798;9.928;2023-01-28T10:57:28;100696.09;;;1.74;75.55
19624;BME280;9959;49.798;9.928;2023-01-28T10:59:55;100694.22;;;1.86;75.61
19624;BME280;9959;49.798;9.928;2023-01-28T11:02:32;100704.84;;;1.86;75.22
19624;BME280;9959;49.798;9.928;2023-01-28T11:07:41;100710.41;;;1.83;75.45
19624;BME280;9959;49.798;9.928;2023-01-28T11:12:40;100715.66;;;1.52;76.82
19624;BME280;9959;49.798;9.928;2023-01-28T11:17:47;100712.91;;;1.43;76.92
19624;BME280;9959;49.798;9.928;2023-01-28T11:20:21;100712.00;;;1.32;77.32
19624;BME280;9959;49.798;9.928;2023-01-28T11:22:50;100721.84;;;1.42;76.81
19624;BME280;9959;49.798;9.928;2023-01-28T11:25:23;100717.38;;;1.42;76.32
19624;BME280;9959;49.798;9.928;2023-01-28T11:27:52;100716.91;;;1.37;76.50
19624;BME280;9959;49.798;9.928;2023-01-28T11:30:20;100716.28;;;1.45;76.73
19624;BME280;9959;49.798;9.928;2023-01-28T11:35:31;100716.38;;;1.22;77.27
19624;BME280;9959;49.798;9.928;2023-01-28T11:37:59;100721.31;;;1.16;77.30
19624;BME280;9959;49.798;9.928;2023-01-28T11:40:26;100728.53;;;1.25;76.58
19624;BME280;9959;49.798;9.928;2023-01-28T11:42:54;100727.19;;;1.30;76.14
19624;BME280;9959;49.798;9.928;2023-01-28T11:46:01;100724.53;;;1.30;76.69
19624;BME280;9959;49.798;9.928;2023-01-28T11:51:54;100716.59;;;1.19;76.49
19624;BME280;9959;49.798;9.928;2023-01-28T12:03:08;100703.94;;;1.23;76.00
19624;BME280;9959;49.798;9.928;2023-01-28T12:05:50;100700.09;;;1.16;75.17
19624;BME280;9959;49.798;9.928;2023-01-28T12:08:41;100700.97;;;1.37;74.60
19624;BME280;9959;49.798;9.928;2023-01-28T12:11:16;100698.00;;;1.30;74.67
19624;BME280;9959;49.798;9.928;2023-01-28T12:14:05;100703.78;;;1.35;74.39
19624;BME280;9959;49.798;9.928;2023-01-28T12:19:57;100696.47;;;1.49;74.71
19624;BME280;9959;49.798;9.928;2023-01-28T12:43:44;100677.00;;;1.27;74.06
19624;BME280;9959;49.798;9.928;2023-01-28T12:46:24;100683.53;;;0.91;74.60
19624;BME280;9959;49.798;9.928;2023-01-28T12:49:02;100679.53;;;0.97;74.79
19624;BME280;9959;49.798;9.928;2023-01-28T12:54:45;100676.00;;;1.08;74.76
19624;BME280;9959;49.798;9.928;2023-01-28T12:57:30;100676.16;;;1.27;73.82
19624;BME280;9959;49.798;9.928;2023-01-28T13:05:49;100679.81;;;1.15;73.62
19624;BME280;9959;49.798;9.928;2023-01-28T13:08:19;100676.91;;;1.18;73.81
19624;BME280;9959;49.798;9.928;2023-01-28T13:10:50;100676.84;;;1.08;74.09
19624;BME280;9959;49.798;9.928;2023-01-28T13:13:38;100677.09;;;1.05;73.68
19624;BME280;9959;49.798;9.928;2023-01-28T13:16:09;100681.31;;;1.08;73.39
19624;BME280;9959;49.798;9.928;2023-01-28T13:23:47;100689.78;;;1.01;73.53
19624;BME280;9959;49.798;9.928;2023-01-28T13:28:49;100694.13;;;1.02;73.30
19624;BME280;9959;49.798;9.928;2023-01-28T13:31:22;100681.03;;;1.11;72.86
19624;BME280;9959;49.798;9.928;2023-01-28T13:36:28;100684.97;;;0.95;72.31
19624;BME280;9959;49.798;9.928;2023-01-28T13:41:52;100686.66;;;0.85;72.74
19624;BME280;9959;49.798;9.928;2023-01-28T13:44:28;100681.09;;;0.99;71.92
19624;BME280;9959;49.798;9.928;2023-01-28T13:46:59;100689.72;;;1.13;71.61
19624;BME280;9959;49.798;9.928;2023-01-28T13:54:43;100710.38;;;1.09;70.21
19624;BME280;9959;49.798;9.928;2023-01-28T14:03:01;100725.84;;;0.93;70.38
19624;BME280;9959;49.798;9.928;2023-01-28T14:11:02;100735.66;;;0.70;70.16
19624;BME280;9959;49.798;9.928;2023-01-28T14:16:32;100731.56;;;0.77;70.05
19624;BME280;9959;49.798;9.928;2023-01-28T14:19:04;100739.50;;;0.77;68.92
19624;BME280;9959;49.798;9.928;2023-01-28T14:21:33;100759.28;;;0.62;68.10
19624;BME280;9959;49.798;9.928;2023-01-28T14:24:01;100752.03;;;0.64;68.05
19624;BME280;9959;49.798;9.928;2023-01-28T14:26:31;100755.06;;;0.59;67.70
19624;BME280;9959;49.798;9.928;2023-01-28T14:31:36;100751.69;;;0.68;66.56
19624;BME280;9959;49.798;9.928;2023-01-28T14:36:42;100768.56;;;0.45;66.42
19624;BME280;9959;49.798;9.928;2023-01-28T14:41:42;100765.66;;;0.59;66.57
19624;BME280;9959;49.798;9.928;2023-01-28T14:46:46;100770.22;;;0.35;65.89
19624;BME280;9959;49.798;9.928;2023-01-28T14:54:50;100780.22;;;0.31;64.19
19624;BME280;9959;49.798;9.928;2023-01-28T14:57:31;100772.03;;;0.57;64.26
19624;BME280;9959;49.798;9.928;2023-01-28T15:00:02;100766.75;;;0.46;63.82
19624;BME280;9959;49.798;9.928;2023-01-28T15:02:41;100775.41;;;0.37;64.04
19624;BME280;9959;49.798;9.928;2023-01-28T15:07:43;100789.88;;;0.44;63.65
19624;BME280;9959;49.798;9.928;2023-01-28T15:12:42;100784.09;;;0.39;63.22
19624;BME280;9959;49.798;9.928;2023-01-28T15:17:38;100778.28;;;0.33;63.55
19624;BME280;9959;49.798;9.928;2023-01-28T15:20:06;100782.13;;;0.29;63.65
19624;BME280;9959;49.798;9.928;2023-01-28T15:22:34;100783.00;;;0.41;64.24
19624;BME280;9959;49.798;9.928;2023-01-28T15:25:05;100777.34;;;0.34;63.93
19624;BME280;9959;49.798;9.928;2023-01-28T15:27:31;100785.66;;;0.41;63.77
19624;BME280;9959;49.798;9.928;2023-01-28T15:29:59;100786.03;;;0.48;64.22
19624;BME280;9959;49.798;9.928;2023-01-28T15:32:28;100780.34;;;0.30;63.90
19624;BME280;9959;49.798;9.928;2023-01-28T15:34:58;100768.66;;;0.32;63.69
19624;BME280;9959;49.798;9.928;2023-01-28T15:37:26;100777.09;;;0.38;64.74
19624;BME280;9959;49.798;9.928;2023-01-28T15:40:00;100767.72;;;0.45;64.40
19624;BME280;9959;49.798;9.928;2023-01-28T15:42:31;100769.03;;;0.39;64.54
19624;BME280;9959;49.798;9.928;2023-01-28T15:45:01;100762.88;;;0.39;64.21
19624;BME280;9959;49.798;9.928;2023-01-28T15:47:31;100759.28;;;0.40;64.81
19624;BME280;9959;49.798;9.928;2023-01-28T15:50:03;100761.69;;;0.43;64.86
19624;BME280;9959;49.798;9.928;2023-01-28T15:52:35;100764.94;;;0.46;65.46
19624;BME280;9959;49.798;9.928;2023-01-28T15:55:05;100752.88;;;0.42;64.39
19624;BME280;9959;49.798;9.928;2023-01-28T15:57:34;100764.31;;;0.31;63.62
19624;BME280;9959;49.798;9.928;2023-01-28T16:02:31;100761.66;;;0.31;63.77
19624;BME280;9959;49.798;9.928;2023-01-28T16:05:00;100769.41;;;0.46;63.82
19624;BME280;9959;49.798;9.928;2023-01-28T16:07:43;100763.34;;;0.21;63.56
19624;BME280;9959;49.798;9.928;2023-01-28T16:12:39;100771.81;;;0.26;63.95
19624;BME280;9959;49.798;9.928;2023-01-28T16:17:47;100763.13;;;0.36;63.88
19624;BME280;9959;49.798;9.928;2023-01-28T16:20:24;100763.13;;;0.36;64.13
19624;BME280;9959;49.798;9.928;2023-01-28T16:23:01;100756.09;;;0.12;63.77